createdAt,value
2018-04-02T00:00:07.611Z,7.06
2018-04-02T00:02:35.909Z,7.02
2018-04-02T00:05:08.039Z,7.08
2018-04-02T00:07:36.349Z,7.16
2018-04-02T00:10:06.259Z,7.08
2018-04-02T00:12:34.561Z,7.04
2018-04-02T00:15:06.697Z,7.00
2018-04-02T00:17:35.145Z,6.88
2018-04-02T00:20:06.958Z,6.94
2018-04-02T00:22:35.441Z,6.93
2018-04-02T00:25:07.552Z,6.73
2018-04-02T00:27:35.822Z,6.74
2018-04-02T00:30:08.040Z,6.65
2018-04-02T00:32:36.301Z,6.62
2018-04-02T00:35:06.349Z,6.67
2018-04-02T00:37:34.646Z,6.70
2018-04-02T00:40:06.574Z,6.57
2018-04-02T00:42:35.037Z,6.55
2018-04-02T00:45:06.378Z,6.48
2018-04-02T00:47:34.694Z,6.41
2018-04-02T00:50:06.636Z,6.37
2018-04-02T00:52:34.918Z,6.29
2018-04-02T00:55:06.674Z,6.26
2018-04-02T00:57:35.024Z,6.23
2018-04-02T01:00:06.306Z,6.23
2018-04-02T01:02:34.589Z,6.18
2018-04-02T01:05:06.031Z,6.20
2018-04-02T01:07:34.341Z,6.28
2018-04-02T01:10:06.162Z,6.18
2018-04-02T01:12:34.474Z,6.22
2018-04-02T01:15:09.583Z,6.06
2018-04-02T01:17:37.892Z,6.05
2018-04-02T01:20:06.840Z,5.92
2018-04-02T01:22:35.164Z,5.84
2018-04-02T01:25:06.512Z,5.75
2018-04-02T01:27:34.794Z,5.74
2018-04-02T01:30:08.950Z,5.69
2018-04-02T01:32:37.250Z,5.59
2018-04-02T01:35:06.814Z,5.58
2018-04-02T01:37:35.101Z,5.55
2018-04-02T01:40:06.522Z,5.53
2018-04-02T01:42:34.809Z,5.59
2018-04-02T01:45:06.258Z,5.40
2018-04-02T01:47:34.582Z,5.24
2018-04-02T01:50:06.189Z,5.31
2018-04-02T01:52:34.476Z,5.31
2018-04-02T01:55:05.777Z,5.16
2018-04-02T01:57:34.091Z,5.03
2018-04-02T02:00:09.377Z,5.08
2018-04-02T02:02:37.702Z,5.07
2018-04-02T02:05:06.781Z,4.98
2018-04-02T02:07:35.106Z,5.04
2018-04-02T02:10:06.528Z,5.11
2018-04-02T02:12:34.864Z,5.19
2018-04-02T02:15:06.594Z,5.24
2018-04-02T02:17:34.925Z,5.22
2018-04-02T02:20:06.547Z,5.29
2018-04-02T02:22:34.909Z,5.40
2018-04-02T02:25:10.319Z,5.46
2018-04-02T02:27:38.661Z,5.38
2018-04-02T02:30:06.979Z,5.44
2018-04-02T02:32:35.290Z,5.50
2018-04-02T02:35:06.449Z,5.41
2018-04-02T02:37:34.751Z,5.38
2018-04-02T02:40:06.324Z,5.30
2018-04-02T02:42:34.630Z,5.17
2018-04-02T02:45:06.143Z,5.15
2018-04-02T02:47:34.671Z,5.24
2018-04-02T02:50:06.766Z,5.23
2018-04-02T02:52:35.060Z,5.27
2018-04-02T02:55:06.908Z,5.09
2018-04-02T02:57:35.392Z,5.20
2018-04-02T03:00:06.695Z,5.19
2018-04-02T03:02:35.212Z,5.17
2018-04-02T03:05:07.181Z,5.07
2018-04-02T03:07:35.487Z,5.22
2018-04-02T03:10:06.729Z,5.18
2018-04-02T03:12:35.046Z,5.10
2018-04-02T03:15:09.020Z,4.97
2018-04-02T03:17:37.296Z,5.07
2018-04-02T03:20:06.871Z,5.08
2018-04-02T03:22:35.534Z,5.10
2018-04-02T03:25:07.591Z,5.05
2018-04-02T03:27:36.297Z,5.09
2018-04-02T03:30:07.855Z,4.97
2018-04-02T03:32:36.638Z,4.95
2018-04-02T03:35:08.052Z,4.96
2018-04-02T03:37:36.353Z,4.90
2018-04-02T03:40:07.588Z,4.85
2018-04-02T03:42:36.090Z,4.89
2018-04-02T03:45:07.918Z,4.79
2018-04-02T03:47:36.243Z,4.83
2018-04-02T03:50:06.845Z,4.96
2018-04-02T03:52:35.152Z,5.14
2018-04-02T03:55:05.669Z,5.26
2018-04-02T03:57:34.693Z,5.43
2018-04-02T04:00:06.731Z,5.12
2018-04-02T04:02:35.341Z,5.26
2018-04-02T04:05:06.282Z,5.30
2018-04-02T04:07:34.813Z,5.27
2018-04-02T04:10:06.619Z,5.19
2018-04-02T04:12:34.944Z,5.29
2018-04-02T04:15:06.611Z,5.20
2018-04-02T04:17:34.946Z,5.27
2018-04-02T04:20:06.847Z,5.33
2018-04-02T04:22:35.148Z,5.27
2018-04-02T04:25:06.988Z,5.19
2018-04-02T04:27:35.297Z,5.25
2018-04-02T04:30:07.329Z,5.47
2018-04-02T04:32:35.649Z,5.44
2018-04-02T04:35:07.580Z,5.51
2018-04-02T04:37:35.925Z,5.42
2018-04-02T04:40:07.958Z,5.38
2018-04-02T04:42:36.299Z,5.31
2018-04-02T04:45:07.537Z,5.27
2018-04-02T04:47:35.866Z,5.31
2018-04-02T04:50:07.730Z,5.31
2018-04-02T04:52:36.101Z,5.30
2018-04-02T04:55:07.370Z,5.19
2018-04-02T04:57:35.679Z,5.17
2018-04-02T05:00:06.888Z,5.28
2018-04-02T05:02:35.228Z,5.45
2018-04-02T05:05:10.421Z,5.45
2018-04-02T05:07:39.168Z,5.39
2018-04-02T05:10:07.460Z,5.36
2018-04-02T05:12:35.775Z,5.43
2018-04-02T05:15:07.558Z,5.43
2018-04-02T05:17:35.882Z,5.54
2018-04-02T05:20:07.998Z,5.41
2018-04-02T05:22:36.299Z,5.40
2018-04-02T05:25:08.361Z,5.48
2018-04-02T05:27:36.682Z,5.54
2018-04-02T05:30:06.617Z,5.56
2018-04-02T05:32:35.015Z,5.60
2018-04-02T05:35:06.498Z,5.58
2018-04-02T05:37:34.809Z,5.71
2018-04-02T05:40:06.238Z,5.61
2018-04-02T05:42:34.560Z,5.71
2018-04-02T05:45:06.505Z,5.64
2018-04-02T05:47:34.796Z,5.72
2018-04-02T05:50:06.768Z,5.69
2018-04-02T05:52:35.146Z,5.73
2018-04-02T05:55:07.217Z,5.89
2018-04-02T05:57:35.581Z,5.54
2018-04-02T06:00:07.581Z,5.58
2018-04-02T06:02:35.883Z,5.70
2018-04-02T06:05:07.737Z,5.67
2018-04-02T06:07:36.000Z,5.72
2018-04-02T06:10:08.112Z,5.78
2018-04-02T06:12:36.430Z,5.83
2018-04-02T06:15:08.462Z,5.88
2018-04-02T06:17:36.801Z,6.03
2018-04-02T06:20:06.735Z,6.05
2018-04-02T06:22:35.222Z,6.04
2018-04-02T06:25:07.145Z,6.02
2018-04-02T06:27:35.456Z,6.13
2018-04-02T06:30:08.647Z,6.25
2018-04-02T06:32:36.944Z,6.30
2018-04-02T06:35:06.973Z,6.23
2018-04-02T06:37:35.253Z,6.34
2018-04-02T06:40:07.193Z,6.47
2018-04-02T06:42:35.492Z,6.36
2018-04-02T06:45:07.654Z,6.54
2018-04-02T06:47:35.971Z,6.65
2018-04-02T06:50:05.903Z,6.88
2018-04-02T06:52:34.181Z,7.14
2018-04-02T06:55:05.578Z,7.06
2018-04-02T06:57:33.870Z,7.13
2018-04-02T07:00:05.408Z,7.34
2018-04-02T07:02:33.754Z,7.40
2018-04-02T07:05:05.731Z,7.67
2018-04-02T07:07:34.477Z,7.81
2018-04-02T07:10:06.413Z,7.93
2018-04-02T07:12:34.716Z,7.81
2018-04-02T07:15:06.817Z,7.93
2018-04-02T07:17:35.117Z,7.92
2018-04-02T07:20:07.279Z,7.84
2018-04-02T07:22:35.572Z,8.04
2018-04-02T07:25:05.703Z,7.67
2018-04-02T07:27:33.996Z,8.28
2018-04-02T07:30:09.078Z,8.46
2018-04-02T07:32:37.396Z,9.08
2018-04-02T07:35:05.759Z,9.18
2018-04-02T07:37:34.092Z,9.20
2018-04-02T07:40:07.000Z,9.45
2018-04-02T07:42:35.310Z,9.45
2018-04-02T07:45:07.256Z,10.56
2018-04-02T07:47:35.544Z,11.90
2018-04-02T07:50:07.557Z,10.85
2018-04-02T07:52:35.857Z,10.73
2018-04-02T07:55:05.911Z,10.17
2018-04-02T07:57:34.255Z,9.52
2018-04-02T08:00:05.602Z,9.60
2018-04-02T08:02:33.875Z,9.80
2018-04-02T08:05:09.222Z,9.79
2018-04-02T08:07:37.515Z,10.18
2018-04-02T08:10:05.843Z,10.52
2018-04-02T08:12:34.480Z,11.12
2018-04-02T08:15:06.912Z,11.28
2018-04-02T08:17:35.209Z,11.46
2018-04-02T08:20:06.938Z,11.33
2018-04-02T08:22:35.426Z,11.57
2018-04-02T08:25:07.302Z,10.66
2018-04-02T08:27:35.681Z,11.52
2018-04-02T08:30:06.276Z,11.41
2018-04-02T08:32:34.588Z,11.51
2018-04-02T08:35:06.673Z,11.42
2018-04-02T08:37:35.003Z,11.47
2018-04-02T08:40:07.070Z,11.66
2018-04-02T08:42:35.359Z,10.74
2018-04-02T08:45:07.136Z,11.09
2018-04-02T08:47:35.696Z,11.07
2018-04-02T08:50:05.606Z,11.21
2018-04-02T08:52:34.194Z,11.47
2018-04-02T08:55:08.265Z,11.87
2018-04-02T08:57:36.565Z,11.24
2018-04-02T09:00:05.783Z,11.05
2018-04-02T09:02:34.085Z,10.94
2018-04-02T09:05:06.233Z,10.87
2018-04-02T09:07:34.555Z,10.97
2018-04-02T09:10:06.558Z,11.08
2018-04-02T09:12:34.866Z,11.61
2018-04-02T09:15:06.277Z,10.93
2018-04-02T09:17:34.574Z,10.94
2018-04-02T09:20:06.688Z,11.19
2018-04-02T09:22:35.364Z,12.00
2018-04-02T09:25:11.506Z,11.29
2018-04-02T09:27:39.813Z,11.99
2018-04-02T09:30:08.104Z,12.30
2018-04-02T09:32:36.431Z,12.38
2018-04-02T09:35:06.301Z,13.01
2018-04-02T09:37:34.612Z,14.91
2018-04-02T09:40:06.837Z,14.78
2018-04-02T09:42:35.751Z,13.05
2018-04-02T09:45:05.692Z,12.78
2018-04-02T09:47:34.296Z,13.14
2018-04-02T09:50:05.679Z,13.71
2018-04-02T09:52:33.968Z,13.11
2018-04-02T09:55:07.887Z,13.86
2018-04-02T09:57:36.162Z,12.61
2018-04-02T10:00:06.051Z,12.89
2018-04-02T10:02:36.470Z,13.78
2018-04-02T10:05:06.366Z,13.49
2018-04-02T10:07:34.582Z,12.98
2018-04-02T10:10:06.572Z,12.54
2018-04-02T10:12:35.053Z,12.99
2018-04-02T10:15:06.886Z,12.86
2018-04-02T10:17:35.157Z,12.28
2018-04-02T10:20:07.085Z,12.00
2018-04-02T10:22:35.553Z,11.90
2018-04-02T10:25:07.506Z,11.83
2018-04-02T10:27:35.792Z,12.26
2018-04-02T10:30:06.481Z,11.94
2018-04-02T10:32:34.990Z,12.13
2018-04-02T10:35:06.504Z,11.75
2018-04-02T10:37:34.801Z,11.86
2018-04-02T10:40:06.832Z,11.66
2018-04-02T10:42:35.851Z,11.83
2018-04-02T10:45:05.870Z,11.97
2018-04-02T10:47:34.168Z,11.50
2018-04-02T10:50:09.303Z,11.45
2018-04-02T10:52:37.799Z,11.40
2018-04-02T10:55:06.074Z,11.79
2018-04-02T10:57:35.003Z,12.11
2018-04-02T11:00:07.288Z,12.12
2018-04-02T11:02:35.804Z,12.15
2018-04-02T11:05:05.925Z,12.23
2018-04-02T11:07:34.201Z,12.13
2018-04-02T11:10:05.656Z,12.36
2018-04-02T11:12:34.008Z,12.62
2018-04-02T11:15:05.497Z,12.45
2018-04-02T11:17:33.817Z,12.23
2018-04-02T11:20:05.470Z,12.47
2018-04-02T11:22:33.793Z,12.44
2018-04-02T11:25:08.706Z,12.44
2018-04-02T11:27:36.994Z,12.67
2018-04-02T11:30:06.629Z,13.18
2018-04-02T11:32:34.904Z,13.13
2018-04-02T11:35:06.725Z,12.73
2018-04-02T11:37:35.491Z,12.99
2018-04-02T11:40:06.881Z,12.87
2018-04-02T11:42:35.157Z,12.91
2018-04-02T11:45:07.199Z,13.26
2018-04-02T11:47:35.482Z,13.58
2018-04-02T11:50:07.456Z,13.63
2018-04-02T11:52:35.743Z,13.64
2018-04-02T11:55:07.838Z,13.43
2018-04-02T11:57:36.140Z,13.25
2018-04-02T12:00:05.875Z,13.62
2018-04-02T12:02:34.225Z,13.71
2018-04-02T12:05:05.655Z,13.79
2018-04-02T12:07:33.959Z,13.93
2018-04-02T12:10:05.431Z,13.79
2018-04-02T12:12:33.724Z,13.66
2018-04-02T12:15:08.632Z,13.66
2018-04-02T12:17:36.936Z,14.20
2018-04-02T12:20:05.964Z,14.50
2018-04-02T12:22:34.382Z,14.81
2018-04-02T12:25:05.786Z,15.47
2018-04-02T12:27:34.466Z,15.74
2018-04-02T12:30:06.089Z,16.22
2018-04-02T12:32:34.528Z,16.87
2018-04-02T12:35:05.932Z,16.28
2018-04-02T12:37:34.203Z,15.19
2018-04-02T12:40:09.357Z,14.96
2018-04-02T12:42:37.651Z,15.41
2018-04-02T12:45:05.948Z,15.64
2018-04-02T12:47:34.213Z,16.18
2018-04-02T12:50:06.080Z,15.65
2018-04-02T12:52:34.959Z,16.27
2018-04-02T12:55:06.569Z,15.20
2018-04-02T12:57:34.863Z,15.36
2018-04-02T13:00:07.667Z,15.23
2018-04-02T13:02:35.944Z,14.54
2018-04-02T13:05:07.500Z,15.03
2018-04-02T13:07:35.790Z,15.93
2018-04-02T13:10:08.849Z,16.00
2018-04-02T13:12:36.489Z,15.72
2018-04-02T13:15:05.929Z,15.25
2018-04-02T13:17:34.311Z,15.23
2018-04-02T13:20:09.431Z,15.27
2018-04-02T13:22:38.237Z,15.70
2018-04-02T13:25:06.545Z,15.19
2018-04-02T13:27:34.806Z,15.13
2018-04-02T13:30:06.949Z,15.04
2018-04-02T13:32:35.234Z,15.47
2018-04-02T13:35:05.952Z,15.24
2018-04-02T13:37:34.426Z,15.45
2018-04-02T13:40:05.885Z,15.43
2018-04-02T13:42:34.990Z,15.39
2018-04-02T13:45:06.610Z,15.47
2018-04-02T13:47:34.910Z,15.78
2018-04-02T13:50:06.903Z,15.16
2018-04-02T13:52:35.196Z,15.49
2018-04-02T13:55:07.206Z,15.37
2018-04-02T13:57:35.656Z,15.62
2018-04-02T14:00:07.456Z,15.30
2018-04-02T14:02:35.750Z,15.57
2018-04-02T14:05:07.861Z,15.30
2018-04-02T14:07:36.193Z,14.86
2018-04-02T14:10:06.100Z,14.65
2018-04-02T14:12:35.034Z,14.41
2018-04-02T14:15:06.247Z,14.46
2018-04-02T14:17:34.586Z,14.44
2018-04-02T14:20:06.927Z,14.57
2018-04-02T14:22:35.318Z,14.38
2018-04-02T14:25:07.191Z,14.46
2018-04-02T14:27:35.476Z,14.24
2018-04-02T14:30:07.633Z,14.25
2018-04-02T14:32:35.928Z,14.38
2018-04-02T14:35:07.852Z,14.46
2018-04-02T14:37:36.156Z,14.40
2018-04-02T14:40:06.170Z,14.55
2018-04-02T14:42:34.420Z,14.54
2018-04-02T14:45:09.740Z,14.56
2018-04-02T14:47:38.018Z,14.58
2018-04-02T14:50:06.496Z,14.81
2018-04-02T14:52:34.778Z,14.86
2018-04-02T14:55:06.067Z,14.87
2018-04-02T14:57:34.345Z,14.73
2018-04-02T15:00:09.752Z,14.81
2018-04-02T15:02:38.121Z,14.84
2018-04-02T15:05:06.402Z,14.76
2018-04-02T15:07:34.677Z,14.81
2018-04-02T15:10:06.069Z,14.89
2018-04-02T15:12:34.367Z,14.75
2018-04-02T15:15:09.688Z,14.68
2018-04-02T15:17:38.048Z,14.80
2018-04-02T15:20:06.365Z,14.82
2018-04-02T15:22:34.677Z,14.78
2018-04-02T15:25:06.253Z,14.80
2018-04-02T15:27:34.711Z,14.80
2018-04-02T15:30:06.121Z,14.72
2018-04-02T15:32:34.396Z,14.81
2018-04-02T15:35:09.486Z,14.79
2018-04-02T15:37:37.995Z,14.96
2018-04-02T15:40:06.322Z,15.03
2018-04-02T15:42:34.627Z,15.07
2018-04-02T15:45:06.080Z,15.28
2018-04-02T15:47:34.490Z,15.44
2018-04-02T15:50:09.473Z,15.35
2018-04-02T15:52:37.760Z,15.43
2018-04-02T15:55:06.061Z,15.50
2018-04-02T15:57:34.372Z,15.63
2018-04-02T16:00:05.946Z,15.78
2018-04-02T16:02:34.244Z,15.82
2018-04-02T16:05:09.232Z,15.91
2018-04-02T16:07:37.530Z,15.69
2018-04-02T16:10:06.172Z,15.61
2018-04-02T16:12:34.440Z,15.51
2018-04-02T16:15:09.499Z,15.45
2018-04-02T16:17:37.766Z,15.27
2018-04-02T16:20:06.365Z,15.21
2018-04-02T16:22:34.632Z,15.24
2018-04-02T16:25:07.069Z,15.07
2018-04-02T16:27:35.357Z,14.98
2018-04-02T16:30:07.432Z,15.10
2018-04-02T16:32:35.725Z,15.16
2018-04-02T16:35:07.580Z,15.07
2018-04-02T16:37:36.012Z,15.12
2018-04-02T16:40:06.840Z,15.00
2018-04-02T16:42:35.372Z,14.89
2018-04-02T16:45:07.324Z,14.95
2018-04-02T16:47:35.605Z,14.97
2018-04-02T16:50:08.199Z,14.87
2018-04-02T16:52:37.225Z,14.81
2018-04-02T16:55:06.753Z,14.90
2018-04-02T16:57:35.039Z,14.95
2018-04-02T17:00:07.189Z,14.92
2018-04-02T17:02:36.280Z,14.83
2018-04-02T17:05:07.478Z,14.66
2018-04-02T17:07:35.839Z,14.68
2018-04-02T17:10:07.711Z,14.63
2018-04-02T17:12:36.047Z,14.58
2018-04-02T17:15:07.979Z,14.62
2018-04-02T17:17:36.439Z,14.58
2018-04-02T17:20:06.300Z,14.55
2018-04-02T17:22:35.565Z,14.52
2018-04-02T17:25:07.617Z,14.33
2018-04-02T17:27:35.896Z,14.32
2018-04-02T17:30:07.911Z,14.42
2018-04-02T17:32:36.341Z,14.48
2018-04-02T17:35:06.139Z,14.50
2018-04-02T17:37:34.491Z,14.32
2018-04-02T17:40:09.963Z,14.36
2018-04-02T17:42:38.254Z,14.42
2018-04-02T17:45:06.902Z,14.35
2018-04-02T17:47:35.233Z,14.33
2018-04-02T17:50:06.918Z,14.31
2018-04-02T17:52:35.216Z,14.41
2018-04-02T17:55:07.195Z,14.36
2018-04-02T17:57:35.418Z,14.29
2018-04-02T18:00:06.382Z,14.34
2018-04-02T18:02:34.915Z,14.44
2018-04-02T18:05:06.994Z,14.41
2018-04-02T18:07:35.393Z,14.40
2018-04-02T18:10:07.541Z,14.39
2018-04-02T18:12:35.824Z,14.38
2018-04-02T18:15:07.275Z,14.34
2018-04-02T18:17:35.600Z,14.32
2018-04-02T18:20:06.200Z,14.32
2018-04-02T18:22:34.649Z,14.32
2018-04-02T18:25:09.724Z,14.37
2018-04-02T18:27:38.041Z,14.27
2018-04-02T18:30:06.346Z,14.28
2018-04-02T18:32:35.405Z,14.24
2018-04-02T18:35:07.411Z,14.19
2018-04-02T18:37:35.780Z,14.30
2018-04-02T18:40:07.698Z,14.21
2018-04-02T18:42:35.986Z,14.25
2018-04-02T18:45:07.920Z,14.06
2018-04-02T18:47:36.246Z,14.10
2018-04-02T18:50:08.759Z,14.00
2018-04-02T18:52:37.341Z,13.81
2018-04-02T18:55:06.634Z,13.90
2018-04-02T18:57:34.930Z,13.80
2018-04-02T19:00:09.177Z,13.65
2018-04-02T19:02:37.630Z,13.80
2018-04-02T19:05:06.416Z,13.87
2018-04-02T19:07:34.728Z,13.82
2018-04-02T19:10:06.297Z,13.73
2018-04-02T19:12:34.587Z,13.86
2018-04-02T19:15:09.651Z,13.92
2018-04-02T19:17:37.962Z,13.91
2018-04-02T19:20:07.659Z,13.99
2018-04-02T19:22:35.936Z,14.03
2018-04-02T19:25:07.667Z,14.09
2018-04-02T19:27:36.026Z,14.03
2018-04-02T19:30:07.815Z,14.01
2018-04-02T19:32:36.098Z,13.88
2018-04-02T19:35:08.117Z,13.93
2018-04-02T19:37:36.437Z,13.90
2018-04-02T19:40:06.319Z,13.88
2018-04-02T19:42:34.617Z,13.87
2018-04-02T19:45:06.120Z,13.79
2018-04-02T19:47:34.416Z,13.85
2018-04-02T19:50:07.448Z,13.99
2018-04-02T19:52:36.492Z,13.99
2018-04-02T19:55:06.876Z,13.93
2018-04-02T19:57:35.220Z,13.79
2018-04-02T20:00:07.002Z,13.83
2018-04-02T20:02:35.804Z,13.90
2018-04-02T20:05:07.334Z,13.77
2018-04-02T20:07:36.211Z,13.80
2018-04-02T20:10:07.629Z,13.78
2018-04-02T20:12:35.915Z,13.82
2018-04-02T20:15:07.923Z,13.80
2018-04-02T20:17:36.407Z,13.69
2018-04-02T20:20:06.533Z,13.04
2018-04-02T20:22:34.869Z,12.79
2018-04-02T20:25:07.857Z,12.72
2018-04-02T20:27:36.178Z,12.41
2018-04-02T20:30:07.795Z,12.50
2018-04-02T20:32:36.096Z,12.47
2018-04-02T20:35:08.133Z,12.43
2018-04-02T20:37:36.437Z,12.36
2018-04-02T20:40:06.471Z,12.46
2018-04-02T20:42:34.761Z,12.45
2018-04-02T20:45:09.921Z,12.49
2018-04-02T20:47:38.201Z,12.52
2018-04-02T20:50:06.496Z,12.50
2018-04-02T20:52:34.800Z,12.54
2018-04-02T20:55:09.984Z,12.52
2018-04-02T20:57:38.259Z,12.43
2018-04-02T21:00:06.568Z,12.30
2018-04-02T21:02:35.080Z,12.43
2018-04-02T21:05:06.726Z,12.51
2018-04-02T21:07:34.989Z,12.43
2018-04-02T21:10:08.930Z,12.54
2018-04-02T21:12:37.212Z,12.52
2018-04-02T21:15:08.634Z,12.60
2018-04-02T21:17:36.966Z,12.62
2018-04-02T21:20:06.917Z,12.62
2018-04-02T21:22:35.185Z,12.47
2018-04-02T21:25:07.289Z,12.60
2018-04-02T21:27:35.900Z,12.83
2018-04-02T21:30:07.681Z,12.70
2018-04-02T21:32:35.945Z,12.59
2018-04-02T21:35:07.848Z,12.73
2018-04-02T21:37:36.113Z,12.56
2018-04-02T21:40:08.046Z,12.74
2018-04-02T21:42:36.333Z,12.81
2018-04-02T21:45:06.392Z,12.56
2018-04-02T21:47:34.660Z,12.36
2018-04-02T21:50:06.096Z,12.20
2018-04-02T21:52:34.540Z,12.19
2018-04-02T21:55:09.792Z,12.18
2018-04-02T21:57:38.086Z,12.08
2018-04-02T22:00:06.459Z,12.04
2018-04-02T22:02:35.276Z,11.85
2018-04-02T22:05:07.301Z,11.79
2018-04-02T22:07:35.602Z,11.90
2018-04-02T22:10:06.424Z,12.16
2018-04-02T22:12:35.227Z,12.28
2018-04-02T22:15:06.472Z,12.34
2018-04-02T22:17:35.050Z,12.31
2018-04-02T22:20:08.948Z,12.30
2018-04-02T22:22:37.246Z,12.30
2018-04-02T22:25:07.359Z,12.23
2018-04-02T22:27:35.638Z,12.17
2018-04-02T22:30:07.441Z,12.22
2018-04-02T22:32:35.763Z,12.19
2018-04-02T22:35:07.786Z,12.14
2018-04-02T22:37:36.444Z,12.13
2018-04-02T22:40:09.056Z,12.16
2018-04-02T22:42:38.568Z,12.26
2018-04-02T22:45:07.016Z,12.36
2018-04-02T22:47:35.297Z,12.78
2018-04-02T22:50:07.417Z,12.83
2018-04-02T22:52:35.739Z,13.09
2018-04-02T22:55:07.654Z,13.14
2018-04-02T22:57:35.895Z,13.17
2018-04-02T23:00:07.801Z,13.20
2018-04-02T23:02:36.059Z,13.28
2018-04-02T23:05:07.543Z,13.27
2018-04-02T23:07:35.798Z,13.29
2018-04-02T23:10:08.367Z,13.31
2018-04-02T23:12:36.641Z,13.33
2018-04-02T23:15:06.173Z,13.27
2018-04-02T23:17:34.448Z,13.19
2018-04-02T23:20:06.798Z,13.22
2018-04-02T23:22:46.842Z,13.26
2018-04-02T23:25:15.670Z,13.29
2018-04-02T23:27:43.936Z,13.27
2018-04-02T23:30:12.221Z,13.27
2018-04-02T23:32:40.524Z,13.33
2018-04-02T23:35:08.820Z,13.30
2018-04-02T23:37:37.096Z,13.37
2018-04-02T23:40:06.398Z,13.35
2018-04-02T23:42:34.692Z,13.08
2018-04-02T23:45:06.754Z,13.31
2018-04-02T23:47:35.257Z,13.31
2018-04-02T23:50:07.049Z,13.34
2018-04-02T23:52:35.333Z,13.35
2018-04-02T23:55:07.582Z,13.36
2018-04-02T23:57:35.927Z,13.30
